createdAt,value
2022-08-22T00:01:17.827Z,2.80
2022-08-22T00:04:04.696Z,2.47
2022-08-22T00:06:58.783Z,2.63
2022-08-22T00:09:27.227Z,2.67
2022-08-22T00:12:14.029Z,1.63
2022-08-22T00:14:59.543Z,1.83
2022-08-22T00:17:33.431Z,1.58
2022-08-22T00:20:13.933Z,2.08
2022-08-22T00:22:59.225Z,1.73
2022-08-22T00:26:06.673Z,1.88
2022-08-22T00:29:00.339Z,2.13
2022-08-22T00:31:34.652Z,1.92
2022-08-22T00:34:10.311Z,1.92
2022-08-22T00:37:11.939Z,1.75
2022-08-22T00:39:53.480Z,1.95
2022-08-22T00:42:36.626Z,1.63
2022-08-22T00:45:30.116Z,1.48
2022-08-22T00:48:27.685Z,1.60
2022-08-22T00:51:33.615Z,1.70
2022-08-22T00:54:01.845Z,2.05
2022-08-22T00:56:52.508Z,1.90
2022-08-22T00:59:26.668Z,2.25
2022-08-22T01:02:02.170Z,1.88
2022-08-22T01:05:04.016Z,1.73
2022-08-22T01:08:00.397Z,1.88
2022-08-22T01:10:41.022Z,2.10
2022-08-22T01:13:46.916Z,1.38
2022-08-22T01:16:27.864Z,1.55
2022-08-22T01:19:30.111Z,1.98
2022-08-22T01:22:29.317Z,1.50
2022-08-22T01:25:39.255Z,1.67
2022-08-22T01:28:32.129Z,1.77
2022-08-22T01:31:35.563Z,2.53
2022-08-22T01:34:28.363Z,1.63
2022-08-22T01:37:08.886Z,1.92
2022-08-22T01:40:10.627Z,2.10
2022-08-22T01:42:57.271Z,1.98
2022-08-22T01:46:04.977Z,1.35
2022-08-22T01:48:46.087Z,1.63
2022-08-22T01:51:27.162Z,2.03
2022-08-22T01:54:26.254Z,1.67
2022-08-22T01:57:03.799Z,1.17
2022-08-22T01:59:42.364Z,1.35
2022-08-22T02:02:17.896Z,2.08
2022-08-22T02:05:00.217Z,1.60
2022-08-22T02:07:49.999Z,2.65
2022-08-22T02:11:03.199Z,1.35
2022-08-22T02:13:42.686Z,1.23
2022-08-22T02:16:32.376Z,1.80
2022-08-22T02:19:03.660Z,1.17
2022-08-22T02:21:40.888Z,1.67
2022-08-22T02:24:33.383Z,1.38
2022-08-22T02:27:17.955Z,1.40
2022-08-22T02:30:02.495Z,1.30
2022-08-22T02:32:41.592Z,1.25
2022-08-22T02:35:40.848Z,1.92
2022-08-22T02:39:05.868Z,1.38
2022-08-22T02:42:06.021Z,1.10
2022-08-22T02:44:42.039Z,1.58
2022-08-22T02:47:22.986Z,1.30
2022-08-22T02:50:19.786Z,1.40
2022-08-22T02:52:51.351Z,1.67
2022-08-22T02:55:37.319Z,1.05
2022-08-22T02:58:36.122Z,1.35
2022-08-22T03:01:04.435Z,1.52
2022-08-22T03:03:40.279Z,1.40
2022-08-22T03:06:35.326Z,1.00
2022-08-22T03:09:16.619Z,1.83
2022-08-22T03:11:49.254Z,1.00
2022-08-22T03:14:21.856Z,1.20
2022-08-22T03:17:02.242Z,1.38
2022-08-22T03:19:53.555Z,1.70
2022-08-22T03:22:29.386Z,1.38
2022-08-22T03:25:18.424Z,1.45
2022-08-22T03:28:03.262Z,1.15
2022-08-22T03:30:57.054Z,1.95
2022-08-22T03:33:31.416Z,1.10
2022-08-22T03:36:09.225Z,1.10
2022-08-22T03:38:37.437Z,0.88
2022-08-22T03:41:11.554Z,1.23
2022-08-22T03:44:12.258Z,1.23
2022-08-22T03:47:00.611Z,1.52
2022-08-22T03:49:46.855Z,1.52
2022-08-22T03:52:18.208Z,1.23
2022-08-22T03:54:52.366Z,1.50
2022-08-22T03:57:52.968Z,1.20
2022-08-22T04:00:59.625Z,2.08
2022-08-22T04:04:16.721Z,1.27
2022-08-22T04:07:32.148Z,1.23
2022-08-22T04:10:46.030Z,1.23
2022-08-22T04:13:32.701Z,0.90
2022-08-22T04:16:37.894Z,0.95
2022-08-22T04:19:35.805Z,1.35
2022-08-22T04:22:41.088Z,1.85
2022-08-22T04:25:27.865Z,1.00
2022-08-22T04:28:19.441Z,2.45
2022-08-22T04:31:01.530Z,1.13
2022-08-22T04:34:06.058Z,0.95
2022-08-22T04:36:40.169Z,1.00
2022-08-22T04:39:08.333Z,0.88
2022-08-22T04:42:31.334Z,1.08
2022-08-22T04:45:09.606Z,1.10
2022-08-22T04:47:42.039Z,0.95
2022-08-22T04:50:43.344Z,1.27
2022-08-22T04:53:33.034Z,0.95
2022-08-22T04:56:32.019Z,1.30
2022-08-22T04:59:09.758Z,1.10
2022-08-22T05:01:44.843Z,1.13
2022-08-22T05:04:21.856Z,1.05
2022-08-22T05:07:09.035Z,1.17
2022-08-22T05:09:41.619Z,0.93
2022-08-22T05:12:15.372Z,1.15
2022-08-22T05:14:57.796Z,1.10
2022-08-22T05:17:30.137Z,1.00
2022-08-22T05:20:05.407Z,1.42
2022-08-22T05:22:41.148Z,1.05
2022-08-22T05:25:21.319Z,1.05
2022-08-22T05:27:55.422Z,2.08
2022-08-22T05:30:30.630Z,1.30
2022-08-22T05:33:05.893Z,2.05
2022-08-22T05:35:44.971Z,1.00
2022-08-22T05:38:20.984Z,1.20
2022-08-22T05:41:00.616Z,0.88
2022-08-22T05:43:29.217Z,1.45
2022-08-22T05:45:59.202Z,1.25
2022-08-22T05:48:43.564Z,1.20
2022-08-22T05:51:14.947Z,1.50
2022-08-22T05:53:48.985Z,0.68
2022-08-22T05:56:36.458Z,1.75
2022-08-22T05:59:14.502Z,1.35
2022-08-22T06:02:31.784Z,0.70
2022-08-22T06:05:05.006Z,1.05
2022-08-22T06:07:40.815Z,0.82
2022-08-22T06:10:30.342Z,1.10
2022-08-22T06:13:04.374Z,1.52
2022-08-22T06:16:01.395Z,2.20
2022-08-22T06:18:32.094Z,1.15
2022-08-22T06:21:07.941Z,2.65
2022-08-22T06:23:53.331Z,1.13
2022-08-22T06:26:22.174Z,1.13
2022-08-22T06:31:30.137Z,0.60
2022-08-22T06:34:06.598Z,3.17
2022-08-22T06:36:38.813Z,0.98
2022-08-22T06:39:10.263Z,1.00
2022-08-22T06:42:02.873Z,1.60
2022-08-22T06:44:41.238Z,1.20
2022-08-22T06:47:16.924Z,0.65
2022-08-22T06:49:45.822Z,1.83
2022-08-22T06:52:20.186Z,2.08
2022-08-22T06:54:51.839Z,1.27
2022-08-22T06:57:45.868Z,0.77
2022-08-22T07:00:17.355Z,0.82
2022-08-22T07:02:53.804Z,1.20
2022-08-22T07:05:24.952Z,0.90
2022-08-22T07:07:53.590Z,1.38
2022-08-22T07:10:23.573Z,0.70
2022-08-22T07:12:54.599Z,0.90
2022-08-22T07:15:37.628Z,2.25
2022-08-22T07:18:18.579Z,1.40
2022-08-22T07:20:55.183Z,1.27
2022-08-22T07:23:42.468Z,0.82
2022-08-22T07:26:28.957Z,1.73
2022-08-22T07:29:29.230Z,2.63
2022-08-22T07:32:25.181Z,1.52
2022-08-22T07:35:18.954Z,1.33
2022-08-22T07:38:08.984Z,4.43
2022-08-22T07:40:56.875Z,1.02
2022-08-22T07:43:34.396Z,2.22
2022-08-22T07:46:08.856Z,4.72
2022-08-22T07:49:08.117Z,2.67
2022-08-22T07:51:44.890Z,2.80
2022-08-22T07:54:17.733Z,2.85
2022-08-22T07:57:00.076Z,1.83
2022-08-22T07:59:30.955Z,1.13
2022-08-22T08:02:01.146Z,1.70
2022-08-22T08:04:40.035Z,4.22
2022-08-22T08:07:11.987Z,2.13
2022-08-22T08:09:46.791Z,1.90
2022-08-22T08:12:16.618Z,2.53
2022-08-22T08:14:46.575Z,2.53
2022-08-22T08:17:28.776Z,2.58
2022-08-22T08:20:06.669Z,1.58
2022-08-22T08:22:36.018Z,2.95
2022-08-22T08:25:06.427Z,2.53
2022-08-22T08:27:39.503Z,3.00
2022-08-22T08:30:44.906Z,4.88
2022-08-22T08:33:25.296Z,2.42
2022-08-22T08:36:13.755Z,3.78
2022-08-22T08:38:48.716Z,2.63
2022-08-22T08:41:36.992Z,3.03
2022-08-22T08:44:33.132Z,3.13
2022-08-22T08:47:07.477Z,5.03
2022-08-22T08:49:50.507Z,4.38
2022-08-22T08:52:45.261Z,4.75
2022-08-22T08:55:25.986Z,4.93
2022-08-22T08:58:06.752Z,3.65
2022-08-22T09:01:06.334Z,3.90
2022-08-22T09:03:51.406Z,3.63
2022-08-22T09:06:56.657Z,4.00
2022-08-22T09:09:52.357Z,5.15
2022-08-22T09:12:43.457Z,3.53
2022-08-22T09:15:41.222Z,4.20
2022-08-22T09:19:02.759Z,3.75
2022-08-22T09:21:49.422Z,3.70
2022-08-22T09:24:47.544Z,4.20
2022-08-22T09:27:55.503Z,4.15
2022-08-22T09:30:28.613Z,3.30
2022-08-22T09:33:25.407Z,4.90
2022-08-22T09:36:02.773Z,3.15
2022-08-22T09:38:55.573Z,11.60
2022-08-22T09:41:46.404Z,3.55
2022-08-22T09:44:32.325Z,5.63
2022-08-22T09:47:24.622Z,3.05
2022-08-22T09:50:22.961Z,2.88
2022-08-22T09:53:06.792Z,7.35
2022-08-22T09:55:43.947Z,3.67
2022-08-22T09:58:40.758Z,3.83
2022-08-22T10:01:25.695Z,3.35
2022-08-22T10:04:28.760Z,2.72
2022-08-22T10:07:11.220Z,2.45
2022-08-22T10:10:06.770Z,3.15
2022-08-22T10:12:52.388Z,3.08
2022-08-22T10:15:33.956Z,2.67
2022-08-22T10:18:32.266Z,2.33
2022-08-22T10:21:06.866Z,2.72
2022-08-22T10:24:07.004Z,2.58
2022-08-22T10:26:57.488Z,2.83
2022-08-22T10:30:03.249Z,2.97
2022-08-22T10:33:12.280Z,3.13
2022-08-22T10:35:56.174Z,2.28
2022-08-22T10:38:27.012Z,2.97
2022-08-22T10:41:08.809Z,3.53
2022-08-22T10:43:46.407Z,3.70
2022-08-22T10:46:20.551Z,2.25
2022-08-22T10:49:00.601Z,2.88
2022-08-22T10:51:46.877Z,2.20
2022-08-22T10:54:51.694Z,2.42
2022-08-22T10:57:36.573Z,2.13
2022-08-22T11:00:05.190Z,1.92
2022-08-22T11:02:53.178Z,1.52
2022-08-22T11:05:39.756Z,2.42
2022-08-22T11:08:45.685Z,1.65
2022-08-22T11:11:32.873Z,1.92
2022-08-22T11:14:19.715Z,1.65
2022-08-22T11:17:28.273Z,1.23
2022-08-22T11:20:06.915Z,1.60
2022-08-22T11:23:04.499Z,1.63
2022-08-22T11:25:39.203Z,1.42
2022-08-22T11:28:29.479Z,2.10
2022-08-22T11:31:23.420Z,1.15
2022-08-22T11:34:10.275Z,1.60
2022-08-22T11:36:57.375Z,3.13
2022-08-22T11:39:41.668Z,2.22
2022-08-22T11:42:13.160Z,2.78
2022-08-22T11:44:58.101Z,2.40
2022-08-22T11:47:36.619Z,3.10
2022-08-22T11:50:44.926Z,1.90
2022-08-22T11:54:07.716Z,1.00
2022-08-22T11:56:43.354Z,1.13
2022-08-22T11:59:27.911Z,1.45
2022-08-22T12:02:03.860Z,2.25
2022-08-22T12:04:44.077Z,1.27
2022-08-22T12:07:27.134Z,2.63
2022-08-22T12:10:16.835Z,2.00
2022-08-22T12:13:17.229Z,2.10
2022-08-22T12:16:24.899Z,1.60
2022-08-22T12:19:04.930Z,2.15
2022-08-22T12:21:56.161Z,2.35
2022-08-22T12:24:45.339Z,1.52
2022-08-22T12:27:34.827Z,1.50
2022-08-22T12:30:03.044Z,2.55
2022-08-22T12:33:06.460Z,1.17
2022-08-22T12:35:37.749Z,2.55
2022-08-22T12:38:29.099Z,1.98
2022-08-22T12:41:08.128Z,1.73
2022-08-22T12:44:17.112Z,1.80
2022-08-22T12:46:55.282Z,1.13
2022-08-22T12:49:50.012Z,2.47
2022-08-22T12:52:53.196Z,1.17
2022-08-22T12:55:22.366Z,1.88
2022-08-22T12:58:34.066Z,1.73
2022-08-22T13:01:07.560Z,2.55
2022-08-22T13:03:50.945Z,2.92
2022-08-22T13:06:48.674Z,1.50
2022-08-22T13:09:28.593Z,1.92
2022-08-22T13:12:21.380Z,2.05
2022-08-22T13:14:57.326Z,2.92
2022-08-22T13:17:28.464Z,3.35
2022-08-22T13:20:09.561Z,1.65
2022-08-22T13:22:45.615Z,1.75
2022-08-22T13:25:28.309Z,2.13
2022-08-22T13:28:05.024Z,1.15
2022-08-22T13:30:43.724Z,1.60
2022-08-22T13:36:03.876Z,1.23
2022-08-22T13:38:46.369Z,1.63
2022-08-22T13:41:32.163Z,2.30
2022-08-22T13:44:18.450Z,1.65
2022-08-22T13:47:13.099Z,2.22
2022-08-22T13:49:41.701Z,1.80
2022-08-22T13:52:29.097Z,1.20
2022-08-22T13:55:43.074Z,3.10
2022-08-22T13:58:29.373Z,1.52
2022-08-22T14:01:09.450Z,0.85
2022-08-22T14:04:28.549Z,2.25
2022-08-22T14:07:04.501Z,1.58
2022-08-22T14:09:42.967Z,1.42
2022-08-22T14:12:16.918Z,2.60
2022-08-22T14:14:48.971Z,1.63
2022-08-22T14:17:24.466Z,2.03
2022-08-22T14:20:01.485Z,1.25
2022-08-22T14:22:35.375Z,0.90
2022-08-22T14:25:09.577Z,1.17
2022-08-22T14:28:01.060Z,1.50
2022-08-22T14:31:00.931Z,2.85
2022-08-22T14:33:56.499Z,4.45
2022-08-22T14:36:48.461Z,1.80
2022-08-22T14:39:28.509Z,3.25
2022-08-22T14:42:22.584Z,1.85
2022-08-22T14:45:14.159Z,2.10
2022-08-22T14:48:29.595Z,1.02
2022-08-22T14:51:18.945Z,1.40
2022-08-22T14:53:50.586Z,0.90
2022-08-22T14:56:27.095Z,1.10
2022-08-22T14:59:01.192Z,1.40
2022-08-22T15:01:37.402Z,2.47
2022-08-22T15:04:16.520Z,2.28
2022-08-22T15:07:08.982Z,1.95
2022-08-22T15:09:52.634Z,1.73
2022-08-22T15:12:40.871Z,1.92
2022-08-22T15:15:15.184Z,2.00
2022-08-22T15:17:50.854Z,1.70
2022-08-22T15:20:27.737Z,1.88
2022-08-22T15:23:23.884Z,3.07
2022-08-22T15:26:13.332Z,0.85
2022-08-22T15:28:53.037Z,1.13
2022-08-22T15:31:22.870Z,1.10
2022-08-22T15:34:04.682Z,1.42
2022-08-22T15:36:33.465Z,2.13
2022-08-22T15:39:32.572Z,1.67
2022-08-22T15:42:03.477Z,1.00
2022-08-22T15:44:38.887Z,2.05
2022-08-22T15:47:29.442Z,3.72
2022-08-22T15:50:14.682Z,11.25
2022-08-22T15:53:18.422Z,7.78
2022-08-22T15:56:15.419Z,10.85
2022-08-22T15:58:50.547Z,16.38
2022-08-22T16:01:26.454Z,9.13
2022-08-22T16:04:06.865Z,8.77
2022-08-22T16:06:54.415Z,8.63
2022-08-22T16:09:44.264Z,5.80
2022-08-22T16:12:37.147Z,4.15
2022-08-22T16:15:28.630Z,6.78
2022-08-22T16:18:01.150Z,7.63
2022-08-22T16:20:29.538Z,2.35
2022-08-22T16:22:57.688Z,3.08
2022-08-22T16:25:47.611Z,4.20
2022-08-22T16:28:56.833Z,2.90
2022-08-22T16:31:42.141Z,3.78
2022-08-22T16:34:22.452Z,5.93
2022-08-22T16:37:12.238Z,2.38
2022-08-22T16:39:41.981Z,3.08
2022-08-22T16:42:16.609Z,3.20
2022-08-22T16:45:05.378Z,3.35
2022-08-22T16:47:33.960Z,2.67
2022-08-22T16:50:17.800Z,3.75
2022-08-22T16:53:09.616Z,2.85
2022-08-22T16:55:50.322Z,2.35
2022-08-22T16:58:29.571Z,4.18
2022-08-22T17:01:23.430Z,1.85
2022-08-22T17:04:20.823Z,3.80
2022-08-22T17:07:07.484Z,3.50
2022-08-22T17:10:02.703Z,3.53
2022-08-22T17:13:01.653Z,2.97
2022-08-22T17:15:29.869Z,2.25
2022-08-22T17:18:11.682Z,2.15
2022-08-22T17:21:00.991Z,2.58
2022-08-22T17:24:01.374Z,3.00
2022-08-22T17:26:35.839Z,2.72
2022-08-22T17:29:22.898Z,1.38
2022-08-22T17:32:09.548Z,1.88
2022-08-22T17:34:51.978Z,1.65
2022-08-22T17:37:38.677Z,2.92
2022-08-22T17:40:26.963Z,2.42
2022-08-22T17:43:10.524Z,1.70
2022-08-22T17:45:55.129Z,4.25
2022-08-22T17:48:41.407Z,2.15
2022-08-22T17:51:32.735Z,1.70
2022-08-22T17:54:29.730Z,2.00
2022-08-22T17:57:33.396Z,3.15
2022-08-22T18:00:29.094Z,3.10
2022-08-22T18:03:16.961Z,1.65
2022-08-22T18:05:59.062Z,1.87
2022-08-22T18:11:42.014Z,1.08
2022-08-22T18:14:36.200Z,1.95
2022-08-22T18:17:22.040Z,2.55
2022-08-22T18:20:06.844Z,2.08
2022-08-22T18:22:40.948Z,1.70
2022-08-22T18:25:26.130Z,2.75
2022-08-22T18:28:00.449Z,2.75
2022-08-22T18:30:50.169Z,2.15
2022-08-22T18:33:34.771Z,1.75
2022-08-22T18:36:13.616Z,2.13
2022-08-22T18:39:23.933Z,2.03
2022-08-22T18:42:25.287Z,2.25
2022-08-22T18:44:53.607Z,1.95
2022-08-22T18:47:29.335Z,2.30
2022-08-22T18:49:58.377Z,3.05
2022-08-22T18:52:26.568Z,3.40
2022-08-22T18:55:25.539Z,2.08
2022-08-22T18:58:25.512Z,2.20
2022-08-22T19:01:15.996Z,2.72
2022-08-22T19:04:09.293Z,2.00
2022-08-22T19:06:51.268Z,2.13
2022-08-22T19:09:25.420Z,3.47
2022-08-22T19:12:23.850Z,1.98
2022-08-22T19:15:10.184Z,1.92
2022-08-22T19:17:41.408Z,2.28
2022-08-22T19:20:21.116Z,2.30
2022-08-22T19:22:55.345Z,1.80
2022-08-22T19:25:26.481Z,1.83
2022-08-22T19:28:22.225Z,1.67
2022-08-22T19:31:32.131Z,1.60
2022-08-22T19:34:20.829Z,1.83
2022-08-22T19:37:32.905Z,2.50
2022-08-22T19:40:07.855Z,4.45
2022-08-22T19:42:41.685Z,2.33
2022-08-22T19:45:21.408Z,2.00
2022-08-22T19:48:10.487Z,1.75
2022-08-22T19:50:42.734Z,1.75
2022-08-22T19:53:33.742Z,2.30
2022-08-22T19:56:23.321Z,2.05
2022-08-22T19:59:11.519Z,2.95
2022-08-22T20:02:18.858Z,1.48
2022-08-22T20:05:20.118Z,2.13
2022-08-22T20:08:33.354Z,2.13
2022-08-22T20:11:34.389Z,2.90
2022-08-22T20:14:30.320Z,1.80
2022-08-22T20:17:08.266Z,1.42
2022-08-22T20:19:42.913Z,3.15
2022-08-22T20:22:37.084Z,2.28
2022-08-22T20:25:17.083Z,1.83
2022-08-22T20:28:04.889Z,2.42
2022-08-22T20:30:40.720Z,2.42
2022-08-22T20:33:12.708Z,2.75
2022-08-22T20:36:02.470Z,4.05
2022-08-22T20:38:38.259Z,3.80
2022-08-22T20:41:11.236Z,3.33
2022-08-22T20:43:44.545Z,2.40
2022-08-22T20:46:46.560Z,4.20
2022-08-22T20:49:23.237Z,7.22
2022-08-22T20:52:09.869Z,5.43
2022-08-22T20:54:41.311Z,12.23
2022-08-22T20:57:18.315Z,9.05
2022-08-22T20:59:58.320Z,4.63
2022-08-22T21:02:58.518Z,5.55
2022-08-22T21:05:34.679Z,5.30
2022-08-22T21:08:06.058Z,4.85
2022-08-22T21:10:37.415Z,3.80
2022-08-22T21:13:23.017Z,7.57
2022-08-22T21:15:58.426Z,3.13
2022-08-22T21:18:42.950Z,4.28
2022-08-22T21:21:25.355Z,4.70
2022-08-22T21:24:00.617Z,5.85
2022-08-22T21:26:34.536Z,5.97
2022-08-22T21:29:05.201Z,5.28
2022-08-22T21:32:04.851Z,4.85
2022-08-22T21:34:45.481Z,4.63
2022-08-22T21:37:35.701Z,4.78
2022-08-22T21:40:14.655Z,4.55
2022-08-22T21:43:04.649Z,3.72
2022-08-22T21:45:39.174Z,4.22
2022-08-22T21:48:40.010Z,4.72
2022-08-22T21:51:25.342Z,2.65
2022-08-22T21:54:25.141Z,3.55
2022-08-22T21:56:56.264Z,4.07
2022-08-22T21:59:50.952Z,3.83
2022-08-22T22:02:39.963Z,3.75
2022-08-22T22:05:18.114Z,5.15
2022-08-22T22:07:48.518Z,4.93
2022-08-22T22:10:20.584Z,3.65
2022-08-22T22:12:50.448Z,3.33
2022-08-22T22:15:23.546Z,3.13
2022-08-22T22:17:52.504Z,5.03
2022-08-22T22:20:23.159Z,5.22
2022-08-22T22:22:52.379Z,2.95
2022-08-22T22:25:40.127Z,3.97
2022-08-22T22:28:15.564Z,4.07
2022-08-22T22:30:45.739Z,3.00
2022-08-22T22:33:13.952Z,4.38
2022-08-22T22:35:42.212Z,3.88
2022-08-22T22:38:10.724Z,3.10
2022-08-22T22:40:39.355Z,3.42
2022-08-22T22:43:08.271Z,2.33
2022-08-22T22:45:37.211Z,2.72
2022-08-22T22:48:06.471Z,2.50
2022-08-22T22:50:35.517Z,3.85
2022-08-22T22:53:03.654Z,3.47
2022-08-22T22:55:32.163Z,2.83
2022-08-22T22:58:01.475Z,3.05
2022-08-22T23:00:33.097Z,3.67
2022-08-22T23:03:04.431Z,2.47
2022-08-22T23:05:34.776Z,2.85
2022-08-22T23:08:05.548Z,3.25
2022-08-22T23:10:34.582Z,2.38
2022-08-22T23:13:03.011Z,2.83
2022-08-22T23:15:31.424Z,2.83
2022-08-22T23:18:00.261Z,3.13
2022-08-22T23:20:28.842Z,2.53
2022-08-22T23:22:57.355Z,1.83
2022-08-22T23:25:25.695Z,2.22
2022-08-22T23:27:54.333Z,3.92
2022-08-22T23:30:23.186Z,2.15
2022-08-22T23:35:19.588Z,2.30
2022-08-22T23:37:47.874Z,2.72
2022-08-22T23:40:16.189Z,4.45
2022-08-22T23:42:44.643Z,3.38
2022-08-22T23:45:12.815Z,2.17
2022-08-22T23:47:41.077Z,3.08
2022-08-22T23:50:09.713Z,4.50
2022-08-22T23:52:37.968Z,3.65
2022-08-22T23:55:06.631Z,3.33
